Terminal Aerodrome Forecast
Issued by NWS

Home | Current Version | Previous Version | Text Only | Print | Product List | Glossary On
Versions: 1 2 3 4 5 6 7 8 9 10 11 12 13 14
000
FTUS44 KLZK 161121
TAFBPK
TAF
KBPK 161121Z 1612/1712 23004KT P6SM SCT250
     FM161500 19010G18KT P6SM BKN250
     FM170000 16007KT P6SM BKN100 OVC250
     FM170900 14007KT 5SM -SHRA BR OVC025=

USA.gov is the U.S. government's official web portal to all federal, state and local government web resources and services.